sensor_id;sensor_type;location;lat;lon;timestamp;P1;durP1;ratioP1;P2;durP2;ratioP2
8825;SDS011;4449;50.872;4.714;2024-02-23T00:03:53;2.33;;;1.55;;
8825;SDS011;4449;50.872;4.714;2024-02-23T00:06:21;1.90;;;1.70;;
8825;SDS011;4449;50.872;4.714;2024-02-23T00:08:52;1.70;;;1.50;;
8825;SDS011;4449;50.872;4.714;2024-02-23T00:11:20;3.70;;;1.73;;
8825;SDS011;4449;50.872;4.714;2024-02-23T00:13:48;1.60;;;1.50;;
8825;SDS011;4449;50.872;4.714;2024-02-23T00:16:15;1.90;;;1.73;;
8825;SDS011;4449;50.872;4.714;2024-02-23T00:18:43;1.95;;;1.50;;
8825;SDS011;4449;50.872;4.714;2024-02-23T00:21:12;2.55;;;1.70;;
8825;SDS011;4449;50.872;4.714;2024-02-23T00:23:40;2.05;;;1.60;;
8825;SDS011;4449;50.872;4.714;2024-02-23T00:26:08;3.53;;;1.70;;
8825;SDS011;4449;50.872;4.714;2024-02-23T00:28:35;3.30;;;1.52;;
8825;SDS011;4449;50.872;4.714;2024-02-23T00:31:03;2.75;;;1.60;;
8825;SDS011;4449;50.872;4.714;2024-02-23T00:33:31;3.15;;;1.60;;
8825;SDS011;4449;50.872;4.714;2024-02-23T00:35:59;3.28;;;1.77;;
8825;SDS011;4449;50.872;4.714;2024-02-23T00:38:29;2.75;;;1.70;;
8825;SDS011;4449;50.872;4.714;2024-02-23T00:40:56;4.20;;;1.63;;
8825;SDS011;4449;50.872;4.714;2024-02-23T00:43:24;1.92;;;1.40;;
8825;SDS011;4449;50.872;4.714;2024-02-23T00:45:54;3.00;;;1.75;;
8825;SDS011;4449;50.872;4.714;2024-02-23T00:48:22;2.40;;;1.60;;
8825;SDS011;4449;50.872;4.714;2024-02-23T00:50:50;3.10;;;1.70;;
8825;SDS011;4449;50.872;4.714;2024-02-23T00:53:17;3.53;;;1.50;;
8825;SDS011;4449;50.872;4.714;2024-02-23T00:55:47;2.17;;;1.50;;
8825;SDS011;4449;50.872;4.714;2024-02-23T00:58:15;3.57;;;1.63;;
8825;SDS011;4449;50.872;4.714;2024-02-23T01:00:42;3.75;;;1.67;;
8825;SDS011;4449;50.872;4.714;2024-02-23T01:03:10;3.55;;;1.80;;
8825;SDS011;4449;50.872;4.714;2024-02-23T01:05:38;5.07;;;1.90;;
8825;SDS011;4449;50.872;4.714;2024-02-23T01:08:08;2.13;;;1.75;;
8825;SDS011;4449;50.872;4.714;2024-02-23T01:10:35;3.03;;;1.98;;
8825;SDS011;4449;50.872;4.714;2024-02-23T01:13:05;2.17;;;1.92;;
8825;SDS011;4449;50.872;4.714;2024-02-23T01:15:32;4.93;;;2.08;;
8825;SDS011;4449;50.872;4.714;2024-02-23T01:18:00;3.13;;;1.95;;
8825;SDS011;4449;50.872;4.714;2024-02-23T01:20:28;3.53;;;2.30;;
8825;SDS011;4449;50.872;4.714;2024-02-23T01:22:55;3.75;;;2.10;;
8825;SDS011;4449;50.872;4.714;2024-02-23T01:25:23;3.67;;;2.00;;
8825;SDS011;4449;50.872;4.714;2024-02-23T01:27:51;2.28;;;1.80;;
8825;SDS011;4449;50.872;4.714;2024-02-23T01:30:20;3.10;;;2.08;;
8825;SDS011;4449;50.872;4.714;2024-02-23T01:32:48;2.83;;;1.83;;
8825;SDS011;4449;50.872;4.714;2024-02-23T01:35:16;2.00;;;1.80;;
8825;SDS011;4449;50.872;4.714;2024-02-23T01:37:44;3.10;;;1.70;;
8825;SDS011;4449;50.872;4.714;2024-02-23T01:40:11;2.75;;;1.80;;
8825;SDS011;4449;50.872;4.714;2024-02-23T01:42:39;3.07;;;1.87;;
8825;SDS011;4449;50.872;4.714;2024-02-23T01:45:07;3.38;;;1.92;;
8825;SDS011;4449;50.872;4.714;2024-02-23T01:47:36;3.35;;;1.70;;
8825;SDS011;4449;50.872;4.714;2024-02-23T01:50:05;3.55;;;1.65;;
8825;SDS011;4449;50.872;4.714;2024-02-23T01:52:34;3.35;;;1.80;;
8825;SDS011;4449;50.872;4.714;2024-02-23T01:55:02;4.13;;;1.95;;
8825;SDS011;4449;50.872;4.714;2024-02-23T01:57:29;2.60;;;2.08;;
8825;SDS011;4449;50.872;4.714;2024-02-23T01:59:59;3.73;;;2.00;;
8825;SDS011;4449;50.872;4.714;2024-02-23T02:02:27;2.70;;;2.20;;
8825;SDS011;4449;50.872;4.714;2024-02-23T02:04:56;2.95;;;2.05;;
8825;SDS011;4449;50.872;4.714;2024-02-23T02:07:24;3.45;;;1.98;;
8825;SDS011;4449;50.872;4.714;2024-02-23T02:09:52;2.35;;;2.00;;
8825;SDS011;4449;50.872;4.714;2024-02-23T02:12:26;2.75;;;1.90;;
8825;SDS011;4449;50.872;4.714;2024-02-23T02:14:53;5.10;;;2.10;;
8825;SDS011;4449;50.872;4.714;2024-02-23T02:17:21;4.95;;;2.03;;
8825;SDS011;4449;50.872;4.714;2024-02-23T02:19:49;3.42;;;2.10;;
8825;SDS011;4449;50.872;4.714;2024-02-23T02:22:18;4.07;;;2.20;;
8825;SDS011;4449;50.872;4.714;2024-02-23T02:24:46;2.88;;;1.60;;
8825;SDS011;4449;50.872;4.714;2024-02-23T02:27:13;4.43;;;2.15;;
8825;SDS011;4449;50.872;4.714;2024-02-23T02:29:41;4.20;;;1.80;;
8825;SDS011;4449;50.872;4.714;2024-02-23T02:32:09;5.10;;;1.85;;
8825;SDS011;4449;50.872;4.714;2024-02-23T02:34:36;4.35;;;2.22;;
8825;SDS011;4449;50.872;4.714;2024-02-23T02:37:04;4.03;;;2.00;;
8825;SDS011;4449;50.872;4.714;2024-02-23T02:39:33;4.93;;;1.98;;
8825;SDS011;4449;50.872;4.714;2024-02-23T02:42:01;3.63;;;1.95;;
8825;SDS011;4449;50.872;4.714;2024-02-23T02:44:29;3.20;;;1.88;;
8825;SDS011;4449;50.872;4.714;2024-02-23T02:46:56;2.63;;;1.80;;
8825;SDS011;4449;50.872;4.714;2024-02-23T02:49:24;4.13;;;2.10;;
8825;SDS011;4449;50.872;4.714;2024-02-23T02:51:52;5.18;;;1.90;;
8825;SDS011;4449;50.872;4.714;2024-02-23T02:54:19;4.78;;;1.95;;
8825;SDS011;4449;50.872;4.714;2024-02-23T02:56:48;4.00;;;1.88;;
8825;SDS011;4449;50.872;4.714;2024-02-23T02:59:19;2.70;;;1.80;;
8825;SDS011;4449;50.872;4.714;2024-02-23T03:01:47;5.63;;;1.85;;
8825;SDS011;4449;50.872;4.714;2024-02-23T03:04:15;5.50;;;2.40;;
8825;SDS011;4449;50.872;4.714;2024-02-23T03:06:43;3.72;;;1.90;;
8825;SDS011;4449;50.872;4.714;2024-02-23T03:09:10;4.82;;;2.03;;
8825;SDS011;4449;50.872;4.714;2024-02-23T03:11:38;4.25;;;2.00;;
8825;SDS011;4449;50.872;4.714;2024-02-23T03:14:07;3.85;;;2.00;;
8825;SDS011;4449;50.872;4.714;2024-02-23T03:16:35;4.50;;;2.03;;
8825;SDS011;4449;50.872;4.714;2024-02-23T03:19:03;3.63;;;1.80;;
8825;SDS011;4449;50.872;4.714;2024-02-23T03:21:33;2.70;;;1.70;;
8825;SDS011;4449;50.872;4.714;2024-02-23T03:24:00;4.27;;;1.77;;
8825;SDS011;4449;50.872;4.714;2024-02-23T03:26:28;3.92;;;2.05;;
8825;SDS011;4449;50.872;4.714;2024-02-23T03:28:56;3.53;;;2.00;;
8825;SDS011;4449;50.872;4.714;2024-02-23T03:31:25;6.00;;;2.13;;
8825;SDS011;4449;50.872;4.714;2024-02-23T03:33:53;5.28;;;2.17;;
8825;SDS011;4449;50.872;4.714;2024-02-23T03:36:20;3.13;;;1.73;;
8825;SDS011;4449;50.872;4.714;2024-02-23T03:38:48;5.35;;;2.33;;
8825;SDS011;4449;50.872;4.714;2024-02-23T03:41:16;4.07;;;2.00;;
8825;SDS011;4449;50.872;4.714;2024-02-23T03:43:44;5.43;;;2.10;;
8825;SDS011;4449;50.872;4.714;2024-02-23T03:46:11;3.85;;;1.88;;
8825;SDS011;4449;50.872;4.714;2024-02-23T03:48:41;5.32;;;2.05;;
8825;SDS011;4449;50.872;4.714;2024-02-23T03:51:09;4.70;;;2.00;;
8825;SDS011;4449;50.872;4.714;2024-02-23T03:53:37;6.45;;;2.10;;
8825;SDS011;4449;50.872;4.714;2024-02-23T03:56:06;5.28;;;2.13;;
8825;SDS011;4449;50.872;4.714;2024-02-23T03:58:34;4.30;;;1.70;;
8825;SDS011;4449;50.872;4.714;2024-02-23T04:01:02;4.68;;;2.10;;
8825;SDS011;4449;50.872;4.714;2024-02-23T04:03:30;5.78;;;2.30;;
8825;SDS011;4449;50.872;4.714;2024-02-23T04:05:59;4.30;;;2.28;;
8825;SDS011;4449;50.872;4.714;2024-02-23T04:08:27;6.25;;;2.28;;
8825;SDS011;4449;50.872;4.714;2024-02-23T04:10:54;4.38;;;2.03;;
8825;SDS011;4449;50.872;4.714;2024-02-23T04:13:23;5.07;;;2.13;;
8825;SDS011;4449;50.872;4.714;2024-02-23T04:15:50;7.70;;;2.08;;
8825;SDS011;4449;50.872;4.714;2024-02-23T04:18:17;5.75;;;2.00;;
8825;SDS011;4449;50.872;4.714;2024-02-23T04:20:45;6.85;;;2.38;;
8825;SDS011;4449;50.872;4.714;2024-02-23T04:23:14;5.88;;;2.13;;
8825;SDS011;4449;50.872;4.714;2024-02-23T04:25:42;6.30;;;2.50;;
8825;SDS011;4449;50.872;4.714;2024-02-23T04:28:09;7.45;;;2.38;;
8825;SDS011;4449;50.872;4.714;2024-02-23T04:30:37;5.18;;;2.33;;
8825;SDS011;4449;50.872;4.714;2024-02-23T04:33:05;5.18;;;2.50;;
8825;SDS011;4449;50.872;4.714;2024-02-23T04:35:32;8.05;;;2.40;;
8825;SDS011;4449;50.872;4.714;2024-02-23T04:38:00;4.68;;;2.28;;
8825;SDS011;4449;50.872;4.714;2024-02-23T04:40:29;4.95;;;2.35;;
8825;SDS011;4449;50.872;4.714;2024-02-23T04:42:57;6.57;;;2.63;;
8825;SDS011;4449;50.872;4.714;2024-02-23T04:45:25;4.93;;;2.33;;
8825;SDS011;4449;50.872;4.714;2024-02-23T04:47:52;6.57;;;2.30;;
8825;SDS011;4449;50.872;4.714;2024-02-23T04:50:20;5.00;;;2.30;;
8825;SDS011;4449;50.872;4.714;2024-02-23T04:52:48;9.95;;;2.30;;
8825;SDS011;4449;50.872;4.714;2024-02-23T04:55:16;6.63;;;2.53;;
8825;SDS011;4449;50.872;4.714;2024-02-23T04:57:45;3.80;;;2.10;;
8825;SDS011;4449;50.872;4.714;2024-02-23T05:00:13;5.70;;;2.30;;
8825;SDS011;4449;50.872;4.714;2024-02-23T05:02:41;4.75;;;2.13;;
8825;SDS011;4449;50.872;4.714;2024-02-23T05:05:09;7.35;;;2.40;;
8825;SDS011;4449;50.872;4.714;2024-02-23T05:07:37;5.93;;;2.20;;
8825;SDS011;4449;50.872;4.714;2024-02-23T05:10:05;5.53;;;2.25;;
8825;SDS011;4449;50.872;4.714;2024-02-23T05:12:32;5.95;;;2.20;;
8825;SDS011;4449;50.872;4.714;2024-02-23T05:15:02;5.10;;;2.38;;
8825;SDS011;4449;50.872;4.714;2024-02-23T05:17:30;6.15;;;2.20;;
8825;SDS011;4449;50.872;4.714;2024-02-23T05:19:57;6.07;;;2.30;;
8825;SDS011;4449;50.872;4.714;2024-02-23T05:22:25;4.72;;;2.25;;
8825;SDS011;4449;50.872;4.714;2024-02-23T05:24:53;8.57;;;2.80;;
8825;SDS011;4449;50.872;4.714;2024-02-23T05:27:20;4.77;;;2.27;;
8825;SDS011;4449;50.872;4.714;2024-02-23T05:29:48;5.93;;;2.58;;
8825;SDS011;4449;50.872;4.714;2024-02-23T05:32:17;4.47;;;1.97;;
8825;SDS011;4449;50.872;4.714;2024-02-23T05:34:45;6.82;;;2.30;;
8825;SDS011;4449;50.872;4.714;2024-02-23T05:37:16;5.65;;;2.38;;
8825;SDS011;4449;50.872;4.714;2024-02-23T05:39:44;5.00;;;1.98;;
8825;SDS011;4449;50.872;4.714;2024-02-23T05:42:12;3.22;;;2.00;;
8825;SDS011;4449;50.872;4.714;2024-02-23T05:44:43;4.97;;;2.15;;
8825;SDS011;4449;50.872;4.714;2024-02-23T05:47:11;3.25;;;2.30;;
8825;SDS011;4449;50.872;4.714;2024-02-23T05:49:40;7.03;;;2.53;;
8825;SDS011;4449;50.872;4.714;2024-02-23T05:52:08;3.60;;;1.80;;
8825;SDS011;4449;50.872;4.714;2024-02-23T05:54:36;4.38;;;2.10;;
8825;SDS011;4449;50.872;4.714;2024-02-23T05:57:04;6.93;;;2.40;;
8825;SDS011;4449;50.872;4.714;2024-02-23T05:59:31;4.45;;;2.15;;
8825;SDS011;4449;50.872;4.714;2024-02-23T06:01:59;4.43;;;2.00;;
8825;SDS011;4449;50.872;4.714;2024-02-23T06:04:27;5.68;;;2.10;;
8825;SDS011;4449;50.872;4.714;2024-02-23T06:06:56;3.85;;;2.08;;
8825;SDS011;4449;50.872;4.714;2024-02-23T06:09:24;5.67;;;2.20;;
8825;SDS011;4449;50.872;4.714;2024-02-23T06:11:52;4.55;;;2.25;;
8825;SDS011;4449;50.872;4.714;2024-02-23T06:14:20;5.63;;;2.30;;
8825;SDS011;4449;50.872;4.714;2024-02-23T06:16:48;5.15;;;2.10;;
8825;SDS011;4449;50.872;4.714;2024-02-23T06:19:16;5.38;;;2.00;;
8825;SDS011;4449;50.872;4.714;2024-02-23T06:21:47;5.07;;;2.00;;
8825;SDS011;4449;50.872;4.714;2024-02-23T06:24:16;6.95;;;2.30;;
8825;SDS011;4449;50.872;4.714;2024-02-23T06:26:45;3.75;;;2.10;;
8825;SDS011;4449;50.872;4.714;2024-02-23T06:29:14;5.85;;;2.30;;
8825;SDS011;4449;50.872;4.714;2024-02-23T06:31:42;8.15;;;2.30;;
8825;SDS011;4449;50.872;4.714;2024-02-23T06:34:14;6.20;;;2.50;;
8825;SDS011;4449;50.872;4.714;2024-02-23T06:36:42;6.43;;;2.45;;
8825;SDS011;4449;50.872;4.714;2024-02-23T06:39:09;4.35;;;2.30;;
8825;SDS011;4449;50.872;4.714;2024-02-23T06:41:39;6.67;;;2.30;;
8825;SDS011;4449;50.872;4.714;2024-02-23T06:44:06;6.43;;;2.60;;
8825;SDS011;4449;50.872;4.714;2024-02-23T06:46:34;4.35;;;2.25;;
8825;SDS011;4449;50.872;4.714;2024-02-23T06:49:02;5.38;;;2.30;;
8825;SDS011;4449;50.872;4.714;2024-02-23T06:51:30;6.47;;;2.60;;
8825;SDS011;4449;50.872;4.714;2024-02-23T06:53:58;6.90;;;2.40;;
8825;SDS011;4449;50.872;4.714;2024-02-23T06:56:26;4.13;;;2.00;;
8825;SDS011;4449;50.872;4.714;2024-02-23T06:58:55;5.38;;;2.40;;
8825;SDS011;4449;50.872;4.714;2024-02-23T07:01:22;7.40;;;2.40;;
8825;SDS011;4449;50.872;4.714;2024-02-23T07:03:50;8.90;;;2.88;;
8825;SDS011;4449;50.872;4.714;2024-02-23T07:06:18;5.50;;;2.20;;
8825;SDS011;4449;50.872;4.714;2024-02-23T07:08:46;5.07;;;2.47;;
8825;SDS011;4449;50.872;4.714;2024-02-23T07:11:13;6.72;;;2.22;;
8825;SDS011;4449;50.872;4.714;2024-02-23T07:13:42;5.67;;;2.57;;
8825;SDS011;4449;50.872;4.714;2024-02-23T07:16:11;4.75;;;2.20;;
8825;SDS011;4449;50.872;4.714;2024-02-23T07:18:40;5.68;;;2.42;;
8825;SDS011;4449;50.872;4.714;2024-02-23T07:21:08;5.55;;;2.20;;
8825;SDS011;4449;50.872;4.714;2024-02-23T07:23:35;8.07;;;2.63;;
8825;SDS011;4449;50.872;4.714;2024-02-23T07:26:03;5.07;;;2.20;;
8825;SDS011;4449;50.872;4.714;2024-02-23T07:28:31;4.82;;;2.58;;
8825;SDS011;4449;50.872;4.714;2024-02-23T07:30:58;7.25;;;2.40;;
8825;SDS011;4449;50.872;4.714;2024-02-23T07:33:27;5.20;;;2.30;;
8825;SDS011;4449;50.872;4.714;2024-02-23T07:35:55;5.72;;;2.30;;
8825;SDS011;4449;50.872;4.714;2024-02-23T07:38:23;6.95;;;2.80;;
8825;SDS011;4449;50.872;4.714;2024-02-23T07:40:51;6.70;;;2.43;;
8825;SDS011;4449;50.872;4.714;2024-02-23T07:43:19;5.20;;;2.10;;
8825;SDS011;4449;50.872;4.714;2024-02-23T07:45:46;4.70;;;2.35;;
8825;SDS011;4449;50.872;4.714;2024-02-23T07:48:14;6.60;;;2.30;;
8825;SDS011;4449;50.872;4.714;2024-02-23T07:50:43;5.15;;;2.53;;
8825;SDS011;4449;50.872;4.714;2024-02-23T07:53:11;9.30;;;2.93;;
8825;SDS011;4449;50.872;4.714;2024-02-23T07:55:39;5.13;;;2.25;;
8825;SDS011;4449;50.872;4.714;2024-02-23T07:58:06;5.10;;;2.40;;
8825;SDS011;4449;50.872;4.714;2024-02-23T08:00:34;9.13;;;2.53;;
8825;SDS011;4449;50.872;4.714;2024-02-23T08:03:03;5.72;;;2.50;;
8825;SDS011;4449;50.872;4.714;2024-02-23T08:05:31;7.35;;;2.30;;
8825;SDS011;4449;50.872;4.714;2024-02-23T08:08:01;5.72;;;2.38;;
8825;SDS011;4449;50.872;4.714;2024-02-23T08:10:29;7.15;;;2.50;;
8825;SDS011;4449;50.872;4.714;2024-02-23T08:12:57;4.45;;;2.20;;
8825;SDS011;4449;50.872;4.714;2024-02-23T08:15:25;4.80;;;2.00;;
8825;SDS011;4449;50.872;4.714;2024-02-23T08:17:53;6.57;;;2.85;;
8825;SDS011;4449;50.872;4.714;2024-02-23T08:20:21;5.93;;;2.10;;
8825;SDS011;4449;50.872;4.714;2024-02-23T08:22:48;6.15;;;2.45;;
8825;SDS011;4449;50.872;4.714;2024-02-23T08:25:17;6.00;;;2.25;;
8825;SDS011;4449;50.872;4.714;2024-02-23T08:27:45;7.38;;;2.50;;
8825;SDS011;4449;50.872;4.714;2024-02-23T08:30:14;6.90;;;2.45;;
8825;SDS011;4449;50.872;4.714;2024-02-23T08:32:42;4.63;;;2.13;;
8825;SDS011;4449;50.872;4.714;2024-02-23T08:35:09;7.15;;;2.50;;
8825;SDS011;4449;50.872;4.714;2024-02-23T08:37:37;5.37;;;2.50;;
8825;SDS011;4449;50.872;4.714;2024-02-23T08:40:05;5.15;;;2.22;;
8825;SDS011;4449;50.872;4.714;2024-02-23T08:42:35;4.90;;;2.20;;
8825;SDS011;4449;50.872;4.714;2024-02-23T08:45:03;6.03;;;2.40;;
8825;SDS011;4449;50.872;4.714;2024-02-23T08:47:31;4.90;;;2.03;;
8825;SDS011;4449;50.872;4.714;2024-02-23T08:50:00;4.00;;;2.03;;
8825;SDS011;4449;50.872;4.714;2024-02-23T08:52:28;4.70;;;2.30;;
8825;SDS011;4449;50.872;4.714;2024-02-23T08:54:56;3.75;;;2.08;;
8825;SDS011;4449;50.872;4.714;2024-02-23T08:57:25;4.28;;;1.73;;
8825;SDS011;4449;50.872;4.714;2024-02-23T08:59:54;5.17;;;2.37;;
8825;SDS011;4449;50.872;4.714;2024-02-23T09:02:24;5.35;;;2.05;;
8825;SDS011;4449;50.872;4.714;2024-02-23T09:04:52;3.42;;;2.08;;
8825;SDS011;4449;50.872;4.714;2024-02-23T09:07:19;5.60;;;2.03;;
8825;SDS011;4449;50.872;4.714;2024-02-23T09:09:47;6.05;;;2.30;;
8825;SDS011;4449;50.872;4.714;2024-02-23T09:12:15;5.95;;;2.13;;
8825;SDS011;4449;50.872;4.714;2024-02-23T09:14:43;5.03;;;2.28;;
8825;SDS011;4449;50.872;4.714;2024-02-23T09:17:11;4.25;;;2.10;;
8825;SDS011;4449;50.872;4.714;2024-02-23T09:19:39;4.72;;;2.40;;
8825;SDS011;4449;50.872;4.714;2024-02-23T09:34:56;5.15;;;2.00;;
8825;SDS011;4449;50.872;4.714;2024-02-23T09:37:24;5.22;;;2.17;;
8825;SDS011;4449;50.872;4.714;2024-02-23T09:39:52;6.93;;;2.60;;
8825;SDS011;4449;50.872;4.714;2024-02-23T09:42:19;4.00;;;2.20;;
8825;SDS011;4449;50.872;4.714;2024-02-23T09:44:50;4.05;;;2.38;;
8825;SDS011;4449;50.872;4.714;2024-02-23T09:47:21;4.50;;;2.30;;
8825;SDS011;4449;50.872;4.714;2024-02-23T09:49:49;6.95;;;2.40;;
8825;SDS011;4449;50.872;4.714;2024-02-23T09:52:18;6.25;;;2.30;;
8825;SDS011;4449;50.872;4.714;2024-02-23T09:54:46;7.07;;;2.45;;
8825;SDS011;4449;50.872;4.714;2024-02-23T09:57:14;6.80;;;2.80;;
8825;SDS011;4449;50.872;4.714;2024-02-23T09:59:43;6.38;;;2.40;;
8825;SDS011;4449;50.872;4.714;2024-02-23T10:02:13;4.55;;;2.13;;
8825;SDS011;4449;50.872;4.714;2024-02-23T10:04:42;4.85;;;2.30;;
8825;SDS011;4449;50.872;4.714;2024-02-23T10:07:10;5.00;;;2.40;;
8825;SDS011;4449;50.872;4.714;2024-02-23T10:09:39;5.32;;;2.50;;
8825;SDS011;4449;50.872;4.714;2024-02-23T10:12:07;3.85;;;2.00;;
8825;SDS011;4449;50.872;4.714;2024-02-23T10:14:34;6.78;;;2.20;;
8825;SDS011;4449;50.872;4.714;2024-02-23T10:17:02;3.95;;;2.03;;
8825;SDS011;4449;50.872;4.714;2024-02-23T10:19:31;5.82;;;2.03;;
8825;SDS011;4449;50.872;4.714;2024-02-23T10:22:00;4.68;;;2.03;;
8825;SDS011;4449;50.872;4.714;2024-02-23T10:24:28;4.68;;;2.10;;
8825;SDS011;4449;50.872;4.714;2024-02-23T10:26:57;4.05;;;2.00;;
8825;SDS011;4449;50.872;4.714;2024-02-23T10:29:25;4.18;;;2.03;;
8825;SDS011;4449;50.872;4.714;2024-02-23T10:31:52;5.80;;;1.83;;
8825;SDS011;4449;50.872;4.714;2024-02-23T10:34:22;4.18;;;1.90;;
8825;SDS011;4449;50.872;4.714;2024-02-23T10:36:50;3.70;;;1.80;;
8825;SDS011;4449;50.872;4.714;2024-02-23T10:39:20;4.03;;;2.10;;
8825;SDS011;4449;50.872;4.714;2024-02-23T10:41:54;3.47;;;1.98;;
8825;SDS011;4449;50.872;4.714;2024-02-23T10:44:25;3.38;;;2.17;;
8825;SDS011;4449;50.872;4.714;2024-02-23T10:46:54;3.60;;;1.80;;
8825;SDS011;4449;50.872;4.714;2024-02-23T10:49:23;3.45;;;1.85;;
8825;SDS011;4449;50.872;4.714;2024-02-23T10:51:52;4.30;;;2.03;;
8825;SDS011;4449;50.872;4.714;2024-02-23T10:54:21;7.47;;;2.00;;
8825;SDS011;4449;50.872;4.714;2024-02-23T10:56:50;5.93;;;2.20;;
8825;SDS011;4449;50.872;4.714;2024-02-23T10:59:18;2.55;;;1.73;;
8825;SDS011;4449;50.872;4.714;2024-02-23T11:01:49;5.00;;;1.95;;
8825;SDS011;4449;50.872;4.714;2024-02-23T11:04:18;4.93;;;1.90;;
8825;SDS011;4449;50.872;4.714;2024-02-23T11:06:50;4.20;;;1.85;;
8825;SDS011;4449;50.872;4.714;2024-02-23T11:09:20;4.57;;;2.07;;
8825;SDS011;4449;50.872;4.714;2024-02-23T11:11:54;2.45;;;2.00;;
8825;SDS011;4449;50.872;4.714;2024-02-23T11:14:31;2.72;;;1.77;;
8825;SDS011;4449;50.872;4.714;2024-02-23T11:17:01;4.05;;;1.80;;
8825;SDS011;4449;50.872;4.714;2024-02-23T11:19:32;2.85;;;1.52;;
8825;SDS011;4449;50.872;4.714;2024-02-23T12:20:06;5.28;;;1.98;;
8825;SDS011;4449;50.872;4.714;2024-02-23T12:22:35;3.38;;;1.70;;
8825;SDS011;4449;50.872;4.714;2024-02-23T12:25:03;4.50;;;1.95;;
8825;SDS011;4449;50.872;4.714;2024-02-23T12:27:30;2.58;;;1.75;;
8825;SDS011;4449;50.872;4.714;2024-02-23T12:29:58;5.53;;;2.20;;
8825;SDS011;4449;50.872;4.714;2024-02-23T12:32:26;3.60;;;1.80;;
8825;SDS011;4449;50.872;4.714;2024-02-23T12:34:53;5.05;;;1.90;;
8825;SDS011;4449;50.872;4.714;2024-02-23T12:37:23;7.03;;;2.22;;
8825;SDS011;4449;50.872;4.714;2024-02-23T12:39:50;3.78;;;1.60;;
8825;SDS011;4449;50.872;4.714;2024-02-23T12:42:18;4.37;;;1.60;;
8825;SDS011;4449;50.872;4.714;2024-02-23T12:44:46;2.65;;;1.65;;
8825;SDS011;4449;50.872;4.714;2024-02-23T12:47:14;6.43;;;2.10;;
8825;SDS011;4449;50.872;4.714;2024-02-23T12:49:41;2.65;;;1.63;;
8825;SDS011;4449;50.872;4.714;2024-02-23T12:52:09;2.45;;;1.50;;
8825;SDS011;4449;50.872;4.714;2024-02-23T12:54:39;3.20;;;1.67;;
8825;SDS011;4449;50.872;4.714;2024-02-23T12:57:07;5.47;;;1.60;;
8825;SDS011;4449;50.872;4.714;2024-02-23T12:59:35;2.95;;;1.65;;
8825;SDS011;4449;50.872;4.714;2024-02-23T13:02:03;4.07;;;2.10;;
8825;SDS011;4449;50.872;4.714;2024-02-23T13:04:30;4.75;;;1.83;;
8825;SDS011;4449;50.872;4.714;2024-02-23T13:06:58;2.78;;;1.55;;
8825;SDS011;4449;50.872;4.714;2024-02-23T13:09:26;3.37;;;1.90;;
8825;SDS011;4449;50.872;4.714;2024-02-23T13:11:55;2.83;;;1.90;;
8825;SDS011;4449;50.872;4.714;2024-02-23T13:14:22;2.67;;;1.58;;
8825;SDS011;4449;50.872;4.714;2024-02-23T13:16:50;6.07;;;2.20;;
8825;SDS011;4449;50.872;4.714;2024-02-23T13:19:18;3.00;;;1.92;;
8825;SDS011;4449;50.872;4.714;2024-02-23T13:21:46;4.07;;;2.10;;
8825;SDS011;4449;50.872;4.714;2024-02-23T13:24:13;3.75;;;1.60;;
8825;SDS011;4449;50.872;4.714;2024-02-23T13:26:41;2.90;;;1.77;;
8825;SDS011;4449;50.872;4.714;2024-02-23T13:29:11;3.40;;;1.73;;
8825;SDS011;4449;50.872;4.714;2024-02-23T13:31:38;3.17;;;1.77;;
8825;SDS011;4449;50.872;4.714;2024-02-23T13:34:06;3.88;;;1.60;;
8825;SDS011;4449;50.872;4.714;2024-02-23T13:36:35;4.35;;;2.03;;
8825;SDS011;4449;50.872;4.714;2024-02-23T13:39:02;4.10;;;2.00;;
8825;SDS011;4449;50.872;4.714;2024-02-23T13:41:30;2.00;;;1.70;;
8825;SDS011;4449;50.872;4.714;2024-02-23T13:43:58;3.10;;;1.57;;
8825;SDS011;4449;50.872;4.714;2024-02-23T13:46:27;3.20;;;1.83;;
8825;SDS011;4449;50.872;4.714;2024-02-23T13:49:01;3.55;;;1.65;;
8825;SDS011;4449;50.872;4.714;2024-02-23T13:51:30;3.83;;;1.60;;
8825;SDS011;4449;50.872;4.714;2024-02-23T13:53:58;3.50;;;1.40;;
8825;SDS011;4449;50.872;4.714;2024-02-23T13:56:25;3.63;;;1.60;;
8825;SDS011;4449;50.872;4.714;2024-02-23T13:58:53;3.50;;;1.50;;
8825;SDS011;4449;50.872;4.714;2024-02-23T14:01:20;3.05;;;1.50;;
8825;SDS011;4449;50.872;4.714;2024-02-23T14:03:50;5.53;;;1.60;;
8825;SDS011;4449;50.872;4.714;2024-02-23T14:06:18;4.03;;;1.50;;
8825;SDS011;4449;50.872;4.714;2024-02-23T14:08:45;2.90;;;1.52;;
8825;SDS011;4449;50.872;4.714;2024-02-23T14:11:13;2.83;;;1.70;;
8825;SDS011;4449;50.872;4.714;2024-02-23T14:13:41;5.07;;;1.63;;
8825;SDS011;4449;50.872;4.714;2024-02-23T14:16:10;2.85;;;1.60;;
8825;SDS011;4449;50.872;4.714;2024-02-23T14:18:37;4.65;;;2.05;;
8825;SDS011;4449;50.872;4.714;2024-02-23T14:21:09;5.28;;;2.10;;
8825;SDS011;4449;50.872;4.714;2024-02-23T14:23:39;4.03;;;1.50;;
8825;SDS011;4449;50.872;4.714;2024-02-23T14:26:07;3.03;;;1.60;;
8825;SDS011;4449;50.872;4.714;2024-02-23T14:28:34;3.70;;;1.60;;
8825;SDS011;4449;50.872;4.714;2024-02-23T14:31:02;3.17;;;1.60;;
8825;SDS011;4449;50.872;4.714;2024-02-23T14:33:29;2.30;;;1.60;;
8825;SDS011;4449;50.872;4.714;2024-02-23T14:35:57;5.10;;;1.65;;
8825;SDS011;4449;50.872;4.714;2024-02-23T14:38:26;3.08;;;1.60;;
8825;SDS011;4449;50.872;4.714;2024-02-23T14:40:54;2.40;;;1.52;;
8825;SDS011;4449;50.872;4.714;2024-02-23T14:43:22;1.75;;;1.50;;
8825;SDS011;4449;50.872;4.714;2024-02-23T14:45:50;1.92;;;1.60;;
8825;SDS011;4449;50.872;4.714;2024-02-23T14:48:18;4.90;;;1.87;;
8825;SDS011;4449;50.872;4.714;2024-02-23T14:50:45;4.13;;;2.08;;
8825;SDS011;4449;50.872;4.714;2024-02-23T14:53:14;2.70;;;1.52;;
8825;SDS011;4449;50.872;4.714;2024-02-23T14:55:43;3.28;;;1.67;;
8825;SDS011;4449;50.872;4.714;2024-02-23T14:58:11;3.58;;;1.55;;
8825;SDS011;4449;50.872;4.714;2024-02-23T15:00:39;4.03;;;1.58;;
8825;SDS011;4449;50.872;4.714;2024-02-23T15:03:07;2.92;;;1.50;;
8825;SDS011;4449;50.872;4.714;2024-02-23T15:05:35;3.53;;;1.63;;
8825;SDS011;4449;50.872;4.714;2024-02-23T15:08:02;3.42;;;1.52;;
8825;SDS011;4449;50.872;4.714;2024-02-23T15:10:30;3.05;;;1.60;;
8825;SDS011;4449;50.872;4.714;2024-02-23T15:13:00;2.25;;;1.45;;
8825;SDS011;4449;50.872;4.714;2024-02-23T15:15:27;3.67;;;1.60;;
8825;SDS011;4449;50.872;4.714;2024-02-23T15:17:55;2.57;;;1.70;;
8825;SDS011;4449;50.872;4.714;2024-02-23T15:20:23;2.15;;;1.58;;
8825;SDS011;4449;50.872;4.714;2024-02-23T15:22:50;3.17;;;1.70;;
8825;SDS011;4449;50.872;4.714;2024-02-23T15:25:18;2.47;;;1.60;;
8825;SDS011;4449;50.872;4.714;2024-02-23T15:27:46;1.85;;;1.50;;
8825;SDS011;4449;50.872;4.714;2024-02-23T15:30:15;2.80;;;1.77;;
8825;SDS011;4449;50.872;4.714;2024-02-23T15:32:43;2.72;;;1.70;;
8825;SDS011;4449;50.872;4.714;2024-02-23T15:50:32;3.38;;;1.58;;
8825;SDS011;4449;50.872;4.714;2024-02-23T15:53:00;3.08;;;1.60;;
8825;SDS011;4449;50.872;4.714;2024-02-23T15:55:29;4.22;;;1.70;;
8825;SDS011;4449;50.872;4.714;2024-02-23T15:57:57;3.65;;;1.52;;
8825;SDS011;4449;50.872;4.714;2024-02-23T16:00:25;2.28;;;1.50;;
8825;SDS011;4449;50.872;4.714;2024-02-23T16:02:53;1.83;;;1.67;;
8825;SDS011;4449;50.872;4.714;2024-02-23T16:05:20;2.35;;;1.95;;
8825;SDS011;4449;50.872;4.714;2024-02-23T16:07:49;2.83;;;1.70;;
8825;SDS011;4449;50.872;4.714;2024-02-23T16:10:17;2.80;;;1.83;;
8825;SDS011;4449;50.872;4.714;2024-02-23T16:12:46;3.50;;;1.75;;
8825;SDS011;4449;50.872;4.714;2024-02-23T16:15:16;2.50;;;1.65;;
8825;SDS011;4449;50.872;4.714;2024-02-23T16:17:44;2.67;;;1.40;;
8825;SDS011;4449;50.872;4.714;2024-02-23T16:20:12;2.42;;;1.70;;
8825;SDS011;4449;50.872;4.714;2024-02-23T16:22:40;1.80;;;1.70;;
8825;SDS011;4449;50.872;4.714;2024-02-23T16:25:10;3.38;;;1.55;;
8825;SDS011;4449;50.872;4.714;2024-02-23T16:27:37;3.30;;;1.70;;
8825;SDS011;4449;50.872;4.714;2024-02-23T16:30:07;2.60;;;1.80;;
8825;SDS011;4449;50.872;4.714;2024-02-23T16:32:35;2.85;;;1.40;;
8825;SDS011;4449;50.872;4.714;2024-02-23T16:35:04;2.47;;;1.50;;
8825;SDS011;4449;50.872;4.714;2024-02-23T16:37:32;4.82;;;2.10;;
8825;SDS011;4449;50.872;4.714;2024-02-23T16:39:59;1.80;;;1.70;;
8825;SDS011;4449;50.872;4.714;2024-02-23T16:42:28;2.58;;;1.88;;
8825;SDS011;4449;50.872;4.714;2024-02-23T16:44:56;4.07;;;1.98;;
8825;SDS011;4449;50.872;4.714;2024-02-23T16:47:24;4.17;;;1.70;;
8825;SDS011;4449;50.872;4.714;2024-02-23T16:49:52;3.53;;;2.00;;